createdAt,value
2019-02-12T00:00:02.644Z,79.79
2019-02-12T00:01:02.605Z,79.44
2019-02-12T00:02:02.679Z,79.47
2019-02-12T00:03:02.584Z,79.57
2019-02-12T00:04:02.653Z,79.23
2019-02-12T00:05:02.597Z,79.36
2019-02-12T00:06:02.661Z,79.49
2019-02-12T00:07:02.609Z,79.31
2019-02-12T00:08:02.660Z,79.36
2019-02-12T00:09:02.659Z,79.75
2019-02-12T00:10:02.605Z,79.49
2019-02-12T00:11:02.639Z,79.41
2019-02-12T00:12:02.522Z,79.63
2019-02-12T00:13:02.648Z,79.60
2019-02-12T00:14:02.651Z,79.68
2019-02-12T00:15:02.638Z,79.33
2019-02-12T00:16:02.651Z,79.52
2019-02-12T00:17:02.534Z,79.60
2019-02-12T00:18:02.600Z,79.65
2019-02-12T00:19:02.640Z,79.73
2019-02-12T00:20:02.554Z,79.57
2019-02-12T00:21:08.950Z,79.63
2019-02-12T00:22:02.663Z,79.49
2019-02-12T00:23:02.586Z,79.23
2019-02-12T00:24:02.545Z,79.17
2019-02-12T00:25:02.660Z,79.23
2019-02-12T00:26:02.589Z,79.23
2019-02-12T00:27:02.715Z,78.81
2019-02-12T00:28:02.661Z,78.67
2019-02-12T00:29:02.588Z,78.54
2019-02-12T00:30:02.662Z,78.17
2019-02-12T00:31:02.623Z,78.36
2019-02-12T00:32:02.728Z,78.41
2019-02-12T00:33:02.605Z,77.99
2019-02-12T00:34:02.622Z,77.67
2019-02-12T00:35:02.610Z,77.51
2019-02-12T00:36:02.608Z,77.54
2019-02-12T00:37:02.649Z,77.97
2019-02-12T00:38:02.683Z,78.07
2019-02-12T00:39:02.685Z,77.99
2019-02-12T00:40:02.607Z,78.05
2019-02-12T00:41:02.552Z,78.15
2019-02-12T00:42:02.669Z,78.44
2019-02-12T00:43:02.595Z,78.07
2019-02-12T00:44:02.588Z,77.78
2019-02-12T00:45:02.677Z,77.73
2019-02-12T00:46:02.600Z,77.81
2019-02-12T00:47:02.675Z,77.81
2019-02-12T00:48:02.675Z,77.86
2019-02-12T00:49:02.675Z,78.15
2019-02-12T00:50:02.701Z,77.94
2019-02-12T00:51:02.554Z,77.91
2019-02-12T00:52:02.583Z,78.07
2019-02-12T00:53:02.611Z,78.05
2019-02-12T00:54:02.624Z,78.17
2019-02-12T00:55:02.577Z,78.44
2019-02-12T00:56:02.620Z,78.59
2019-02-12T00:57:02.560Z,78.57
2019-02-12T00:58:02.676Z,78.75
2019-02-12T00:59:02.558Z,78.97
2019-02-12T01:00:02.582Z,79.15
2019-02-12T01:01:02.723Z,79.25
2019-02-12T01:02:02.716Z,79.25
2019-02-12T01:03:02.639Z,79.28
2019-02-12T01:04:02.700Z,79.31
2019-02-12T01:05:04.370Z,79.28
2019-02-12T01:06:02.704Z,79.39
2019-02-12T01:07:02.624Z,79.57
2019-02-12T01:08:02.631Z,79.75
2019-02-12T01:09:02.702Z,79.75
2019-02-12T01:10:02.705Z,79.89
2019-02-12T01:11:02.709Z,79.86
2019-02-12T01:12:02.704Z,79.71
2019-02-12T01:13:02.728Z,79.23
2019-02-12T01:14:02.631Z,79.02
2019-02-12T01:15:02.638Z,79.05
2019-02-12T01:16:02.722Z,79.17
2019-02-12T01:17:02.632Z,79.15
2019-02-12T01:18:02.713Z,79.28
2019-02-12T01:19:02.646Z,78.97
2019-02-12T01:20:02.705Z,79.10
2019-02-12T01:21:02.703Z,79.13
2019-02-12T01:22:02.623Z,79.31
2019-02-12T01:23:02.636Z,79.28
2019-02-12T01:24:02.704Z,79.17
2019-02-12T01:25:02.703Z,79.47
2019-02-12T01:26:02.718Z,79.55
2019-02-12T01:27:02.712Z,79.75
2019-02-12T01:28:02.781Z,79.81
2019-02-12T01:29:02.716Z,79.75
2019-02-12T01:30:02.617Z,79.71
2019-02-12T01:31:02.653Z,79.79
2019-02-12T01:32:02.635Z,79.97
2019-02-12T01:33:02.666Z,80.18
2019-02-12T01:34:02.684Z,80.02
2019-02-12T01:35:02.636Z,79.97
2019-02-12T01:36:02.605Z,80.15
2019-02-12T01:37:02.638Z,80.39
2019-02-12T01:38:02.670Z,80.47
2019-02-12T01:39:02.601Z,80.60
2019-02-12T01:40:02.577Z,80.65
2019-02-12T01:41:02.729Z,80.65
2019-02-12T01:42:02.730Z,80.68
2019-02-12T01:43:02.726Z,80.81
2019-02-12T01:44:02.654Z,80.92
2019-02-12T01:45:02.753Z,80.79
2019-02-12T01:46:02.727Z,80.79
2019-02-12T01:47:02.728Z,80.79
2019-02-12T01:48:02.735Z,81.05
2019-02-12T01:49:02.656Z,80.89
2019-02-12T01:50:02.732Z,80.89
2019-02-12T01:51:02.661Z,81.02
2019-02-12T01:52:02.657Z,81.16
2019-02-12T01:53:02.734Z,80.87
2019-02-12T01:54:02.666Z,80.97
2019-02-12T01:55:02.793Z,80.81
2019-02-12T01:56:02.665Z,80.97
2019-02-12T01:57:02.672Z,81.00
2019-02-12T01:58:02.692Z,81.21
2019-02-12T01:59:02.673Z,81.34
2019-02-12T02:00:02.673Z,81.60
2019-02-12T02:01:02.667Z,81.60
2019-02-12T02:02:02.673Z,81.68
2019-02-12T02:03:02.671Z,81.79
2019-02-12T02:04:02.723Z,81.79
2019-02-12T02:05:02.739Z,81.87
2019-02-12T02:06:02.669Z,81.76
2019-02-12T02:07:02.666Z,81.66
2019-02-12T02:08:02.745Z,81.82
2019-02-12T02:09:02.753Z,82.14
2019-02-12T02:10:02.673Z,82.21
2019-02-12T02:11:02.736Z,82.19
2019-02-12T02:12:02.659Z,82.19
2019-02-12T02:13:02.658Z,82.21
2019-02-12T02:14:02.669Z,82.35
2019-02-12T02:15:02.737Z,82.45
2019-02-12T02:16:02.665Z,82.56
2019-02-12T02:17:02.742Z,82.72
2019-02-12T02:18:02.697Z,82.75
2019-02-12T02:19:02.744Z,82.98
2019-02-12T02:20:02.652Z,83.17
2019-02-12T02:21:02.682Z,83.36
2019-02-12T02:22:02.686Z,83.51
2019-02-12T02:23:02.647Z,83.49
2019-02-12T02:24:02.683Z,83.57
2019-02-12T02:25:02.759Z,83.75
2019-02-12T02:26:02.757Z,83.86
2019-02-12T02:27:02.765Z,83.97
2019-02-12T02:28:02.760Z,84.02
2019-02-12T02:29:02.688Z,84.17
2019-02-12T02:30:02.711Z,84.26
2019-02-12T02:31:02.692Z,84.47
2019-02-12T02:32:02.764Z,84.52
2019-02-12T02:33:02.707Z,84.58
2019-02-12T02:34:02.687Z,84.63
2019-02-12T02:35:02.766Z,84.68
2019-02-12T02:36:02.696Z,84.76
2019-02-12T02:37:02.693Z,84.87
2019-02-12T02:38:02.761Z,85.03
2019-02-12T02:39:02.696Z,85.13
2019-02-12T02:40:02.699Z,85.35
2019-02-12T02:41:02.769Z,85.56
2019-02-12T02:42:02.707Z,85.69
2019-02-12T02:43:02.692Z,85.85
2019-02-12T02:44:02.724Z,86.07
2019-02-12T02:45:02.738Z,86.07
2019-02-12T02:46:02.626Z,86.12
2019-02-12T02:47:02.745Z,86.20
2019-02-12T02:48:02.628Z,86.30
2019-02-12T02:49:02.630Z,86.33
2019-02-12T02:50:03.437Z,86.44
2019-02-12T02:51:02.628Z,86.49
2019-02-12T02:52:02.701Z,86.44
2019-02-12T02:53:02.764Z,86.52
2019-02-12T02:54:02.671Z,86.52
2019-02-12T02:55:02.751Z,86.68
2019-02-12T02:56:02.761Z,86.71
2019-02-12T02:57:02.671Z,86.76
2019-02-12T02:58:02.779Z,86.79
2019-02-12T02:59:02.677Z,86.71
2019-02-12T03:00:02.753Z,86.76
2019-02-12T03:01:02.766Z,86.73
2019-02-12T03:02:02.707Z,86.89
2019-02-12T03:03:02.790Z,86.73
2019-02-12T03:04:02.712Z,86.65
2019-02-12T03:05:02.720Z,86.63
2019-02-12T03:06:02.715Z,86.60
2019-02-12T03:07:02.738Z,86.76
2019-02-12T03:08:02.787Z,86.91
2019-02-12T03:09:02.716Z,87.13
2019-02-12T03:10:02.787Z,87.34
2019-02-12T03:11:02.716Z,87.48
2019-02-12T03:12:02.793Z,87.59
2019-02-12T03:13:02.853Z,87.77
2019-02-12T03:14:02.796Z,87.93
2019-02-12T03:15:02.817Z,88.12
2019-02-12T03:16:02.800Z,88.36
2019-02-12T03:17:02.805Z,88.54
2019-02-12T03:18:02.803Z,88.73
2019-02-12T03:19:02.745Z,88.89
2019-02-12T03:20:02.725Z,89.06
2019-02-12T03:21:02.787Z,89.27
2019-02-12T03:22:03.896Z,89.37
2019-02-12T03:23:02.797Z,89.51
2019-02-12T03:24:02.807Z,89.62
2019-02-12T03:25:02.799Z,89.67
2019-02-12T03:26:02.737Z,89.78
2019-02-12T03:27:02.803Z,89.91
2019-02-12T03:28:02.767Z,89.99
2019-02-12T03:29:02.806Z,90.07
2019-02-12T03:30:02.747Z,90.15
2019-02-12T03:31:02.862Z,90.20
2019-02-12T03:32:02.743Z,90.34
2019-02-12T03:33:02.805Z,90.45
2019-02-12T03:34:02.733Z,90.55
2019-02-12T03:35:02.809Z,90.66
2019-02-12T03:36:02.806Z,90.71
2019-02-12T03:37:02.736Z,90.74
2019-02-12T03:38:02.733Z,90.88
2019-02-12T03:39:02.838Z,90.96
2019-02-12T03:40:02.737Z,90.98
2019-02-12T03:41:02.821Z,91.07
2019-02-12T03:42:02.794Z,91.14
2019-02-12T03:43:02.676Z,91.28
2019-02-12T03:44:02.684Z,91.38
2019-02-12T03:45:02.755Z,91.47
2019-02-12T03:46:02.704Z,91.57
2019-02-12T03:47:02.728Z,91.57
2019-02-12T03:48:02.774Z,91.57
2019-02-12T03:49:02.755Z,91.63
2019-02-12T03:50:02.795Z,91.68
2019-02-12T03:51:02.802Z,91.71
2019-02-12T03:52:02.746Z,91.76
2019-02-12T03:53:02.818Z,91.92
2019-02-12T03:54:02.765Z,92.11
2019-02-12T03:55:02.752Z,92.32
2019-02-12T03:56:02.822Z,92.62
2019-02-12T03:57:02.754Z,92.78
2019-02-12T03:58:02.819Z,92.99
2019-02-12T03:59:02.757Z,93.13
2019-02-12T04:00:02.826Z,93.32
2019-02-12T04:01:02.755Z,93.43
2019-02-12T04:02:02.684Z,93.56
2019-02-12T04:03:02.722Z,93.62
2019-02-12T04:04:02.795Z,93.54
2019-02-12T04:05:02.792Z,93.35
2019-02-12T04:06:02.788Z,93.18
2019-02-12T04:07:02.736Z,93.05
2019-02-12T04:08:02.774Z,92.86
2019-02-12T04:09:02.797Z,92.70
2019-02-12T04:10:02.777Z,92.62
2019-02-12T04:11:02.775Z,92.54
2019-02-12T04:12:02.840Z,92.46
2019-02-12T04:13:02.767Z,92.49
2019-02-12T04:14:02.773Z,92.70
2019-02-12T04:15:02.786Z,92.70
2019-02-12T04:16:02.766Z,92.73
2019-02-12T04:17:02.774Z,92.70
2019-02-12T04:18:02.797Z,92.70
2019-02-12T04:19:02.775Z,92.59
2019-02-12T04:20:02.821Z,92.54
2019-02-12T04:21:02.836Z,92.43
2019-02-12T04:22:02.836Z,92.46
2019-02-12T04:23:02.829Z,92.40
2019-02-12T04:24:02.828Z,92.38
2019-02-12T04:25:02.753Z,92.38
2019-02-12T04:26:02.831Z,92.38
2019-02-12T04:27:02.830Z,92.40
2019-02-12T04:28:02.759Z,92.49
2019-02-12T04:29:02.762Z,92.51
2019-02-12T04:30:02.771Z,92.54
2019-02-12T04:31:02.755Z,92.62
2019-02-12T04:32:02.771Z,92.59
2019-02-12T04:33:02.757Z,92.62
2019-02-12T04:34:02.762Z,92.51
2019-02-12T04:35:02.839Z,92.46
2019-02-12T04:36:02.831Z,92.43
2019-02-12T04:37:02.838Z,92.40
2019-02-12T04:38:02.749Z,92.30
2019-02-12T04:39:02.764Z,92.30
2019-02-12T04:40:02.852Z,92.30
2019-02-12T04:41:02.838Z,92.24
2019-02-12T04:42:02.866Z,92.16
2019-02-12T04:43:02.856Z,92.11
2019-02-12T04:44:02.808Z,92.01
2019-02-12T04:45:02.797Z,91.92
2019-02-12T04:46:02.783Z,91.90
2019-02-12T04:47:02.867Z,91.92
2019-02-12T04:48:02.869Z,91.92
2019-02-12T04:49:02.785Z,91.90
2019-02-12T04:50:02.790Z,91.73
2019-02-12T04:51:02.855Z,91.73
2019-02-12T04:52:02.786Z,91.82
2019-02-12T04:53:02.829Z,91.92
2019-02-12T04:54:02.809Z,91.90
2019-02-12T04:55:02.788Z,91.95
2019-02-12T04:56:02.859Z,91.97
2019-02-12T04:57:02.867Z,91.95
2019-02-12T04:58:02.828Z,91.92
2019-02-12T04:59:02.863Z,91.95
2019-02-12T05:00:02.868Z,91.92
2019-02-12T05:01:02.798Z,91.97
2019-02-12T05:02:02.877Z,92.05
2019-02-12T05:03:02.793Z,92.11
2019-02-12T05:04:02.867Z,92.11
2019-02-12T05:05:02.803Z,92.11
2019-02-12T05:06:02.803Z,91.97
2019-02-12T05:07:02.815Z,92.01
2019-02-12T05:08:02.859Z,92.05
2019-02-12T05:09:02.797Z,91.92
2019-02-12T05:10:02.798Z,91.92
2019-02-12T05:11:02.815Z,91.92
2019-02-12T05:12:02.864Z,91.86
2019-02-12T05:13:02.783Z,91.79
2019-02-12T05:14:02.832Z,91.73
2019-02-12T05:15:02.792Z,91.55
2019-02-12T05:16:02.873Z,91.57
2019-02-12T05:17:02.864Z,91.55
2019-02-12T05:18:02.866Z,91.57
2019-02-12T05:19:02.798Z,91.49
2019-02-12T05:20:02.873Z,91.52
2019-02-12T05:21:02.867Z,91.57
2019-02-12T05:22:02.881Z,91.68
2019-02-12T05:23:02.889Z,91.73
2019-02-12T05:24:02.813Z,91.73
2019-02-12T05:25:02.812Z,91.73
2019-02-12T05:26:02.811Z,91.79
2019-02-12T05:27:02.898Z,91.84
2019-02-12T05:28:02.809Z,91.84
2019-02-12T05:29:02.829Z,91.92
2019-02-12T05:30:02.810Z,91.92
2019-02-12T05:31:02.893Z,92.01
2019-02-12T05:32:02.793Z,92.14
2019-02-12T05:33:02.883Z,92.19
2019-02-12T05:34:02.808Z,92.32
2019-02-12T05:35:02.801Z,92.38
2019-02-12T05:36:02.879Z,92.51
2019-02-12T05:37:02.880Z,92.65
2019-02-12T05:38:02.795Z,92.70
2019-02-12T05:39:02.884Z,92.78
2019-02-12T05:40:02.884Z,92.86
2019-02-12T05:41:02.889Z,92.95
2019-02-12T05:42:02.902Z,93.10
2019-02-12T05:43:02.845Z,93.26
2019-02-12T05:44:02.912Z,93.40
2019-02-12T05:45:02.898Z,93.54
2019-02-12T05:46:02.788Z,93.64
2019-02-12T05:47:02.901Z,93.72
2019-02-12T05:48:02.823Z,93.83
2019-02-12T05:49:02.904Z,93.89
2019-02-12T05:50:02.839Z,93.91
2019-02-12T05:51:02.831Z,93.96
2019-02-12T05:52:02.905Z,94.02
2019-02-12T05:53:02.909Z,94.15
2019-02-12T05:54:02.920Z,94.07
2019-02-12T05:55:02.930Z,94.10
2019-02-12T05:56:02.831Z,94.12
2019-02-12T05:57:02.904Z,94.15
2019-02-12T05:58:02.902Z,94.15
2019-02-12T05:59:02.902Z,94.15
2019-02-12T06:00:02.906Z,94.18
2019-02-12T06:01:02.923Z,94.15
2019-02-12T06:02:02.807Z,94.15
2019-02-12T06:03:02.914Z,94.15
2019-02-12T06:04:02.836Z,94.21
2019-02-12T06:05:02.921Z,94.18
2019-02-12T06:06:02.909Z,94.15
2019-02-12T06:07:02.848Z,94.12
2019-02-12T06:08:02.845Z,94.12
2019-02-12T06:09:02.911Z,94.07
2019-02-12T06:10:02.841Z,93.99
2019-02-12T06:11:02.913Z,93.94
2019-02-12T06:12:02.925Z,93.94
2019-02-12T06:13:02.906Z,93.89
2019-02-12T06:14:02.815Z,93.83
2019-02-12T06:15:02.832Z,93.83
2019-02-12T06:16:02.973Z,93.89
2019-02-12T06:17:02.818Z,93.91
2019-02-12T06:19:02.919Z,93.89
2019-02-12T06:20:02.843Z,93.85
2019-02-12T06:21:02.910Z,93.85
2019-02-12T06:22:02.845Z,93.83
2019-02-12T06:23:04.164Z,93.89
2019-02-12T06:24:02.855Z,93.89
2019-02-12T06:25:02.854Z,93.89
2019-02-12T06:26:02.902Z,93.89
2019-02-12T06:27:02.851Z,93.85
2019-02-12T06:28:02.814Z,93.85
2019-02-12T06:29:02.951Z,93.85
2019-02-12T06:30:02.924Z,93.83
2019-02-12T06:31:02.868Z,93.83
2019-02-12T06:32:02.907Z,93.89
2019-02-12T06:33:07.523Z,93.96
2019-02-12T06:34:02.841Z,94.07
2019-02-12T06:35:02.901Z,94.21
2019-02-12T06:36:02.866Z,94.42
2019-02-12T06:37:02.819Z,94.67
2019-02-12T06:38:02.913Z,94.91
2019-02-12T06:39:02.908Z,95.15
2019-02-12T06:40:02.863Z,95.42
2019-02-12T06:41:02.856Z,95.66
2019-02-12T06:42:02.917Z,96.02
2019-02-12T06:43:02.835Z,96.26
2019-02-12T06:44:02.803Z,96.45
2019-02-12T06:45:02.927Z,96.66
2019-02-12T06:46:02.924Z,96.93
2019-02-12T06:47:02.916Z,97.18
2019-02-12T06:48:02.835Z,97.45
2019-02-12T06:49:02.923Z,97.74
2019-02-12T06:50:02.832Z,98.02
2019-02-12T06:51:02.944Z,98.21
2019-02-12T06:52:02.859Z,98.42
2019-02-12T06:53:11.877Z,98.64
2019-02-12T06:54:02.931Z,98.80
2019-02-12T06:55:02.955Z,99.02
2019-02-12T06:56:02.936Z,99.21
2019-02-12T06:57:02.879Z,99.45
2019-02-12T06:58:02.934Z,99.72
2019-02-12T06:59:02.846Z,99.99
2019-02-12T07:00:02.938Z,99.99
2019-02-12T07:01:02.849Z,99.99
2019-02-12T07:02:02.941Z,99.99
2019-02-12T07:03:02.850Z,99.99
2019-02-12T07:04:02.852Z,99.99
2019-02-12T07:05:02.866Z,99.99
2019-02-12T07:06:02.944Z,99.99
2019-02-12T07:07:02.874Z,99.99
2019-02-12T07:08:02.940Z,99.99
2019-02-12T07:09:02.841Z,99.99
2019-02-12T07:10:02.942Z,99.99
2019-02-12T07:11:02.938Z,99.99
2019-02-12T07:12:02.895Z,99.99
2019-02-12T07:13:03.393Z,99.99
2019-02-12T07:14:02.886Z,99.99
2019-02-12T07:15:02.883Z,99.99
2019-02-12T07:16:02.956Z,99.99
2019-02-12T07:17:02.892Z,99.99
2019-02-12T07:18:02.884Z,99.99
2019-02-12T07:19:02.962Z,99.99
2019-02-12T07:20:02.960Z,99.99
2019-02-12T07:21:02.895Z,99.99
2019-02-12T07:22:02.957Z,99.99
2019-02-12T07:23:02.967Z,99.99
2019-02-12T07:24:02.876Z,99.99
2019-02-12T07:25:02.957Z,99.99
2019-02-12T07:26:02.944Z,99.99
2019-02-12T07:27:02.962Z,99.99
2019-02-12T07:28:02.913Z,99.99
2019-02-12T07:29:02.966Z,99.99
2019-02-12T07:30:02.964Z,99.99
2019-02-12T07:31:02.912Z,99.99
2019-02-12T07:32:03.020Z,99.99
2019-02-12T07:33:02.959Z,99.99
2019-02-12T07:34:02.974Z,99.99
2019-02-12T07:35:02.870Z,99.99
2019-02-12T07:36:02.975Z,99.99
2019-02-12T07:37:02.973Z,99.99
2019-02-12T07:38:02.958Z,99.99
2019-02-12T07:39:02.962Z,99.99
2019-02-12T07:40:02.928Z,99.99
2019-02-12T07:41:02.980Z,99.99
2019-02-12T07:42:02.876Z,99.99
2019-02-12T07:43:02.892Z,99.99
2019-02-12T07:44:02.877Z,99.99
2019-02-12T07:45:02.978Z,99.99
2019-02-12T07:46:02.988Z,99.99
2019-02-12T07:47:02.894Z,99.99
2019-02-12T07:48:02.859Z,99.99
2019-02-12T07:49:02.895Z,99.99
2019-02-12T07:50:02.908Z,99.99
2019-02-12T07:51:02.903Z,99.99
2019-02-12T07:52:02.841Z,99.99
2019-02-12T07:53:02.844Z,99.99
2019-02-12T07:54:02.963Z,99.99
2019-02-12T07:55:02.955Z,99.99
2019-02-12T07:56:02.968Z,99.99
2019-02-12T07:57:02.877Z,99.99
2019-02-12T07:58:02.880Z,99.99
2019-02-12T07:59:02.916Z,99.99
2019-02-12T08:00:02.936Z,99.99
2019-02-12T08:01:02.846Z,99.99
2019-02-12T08:02:02.917Z,99.99
2019-02-12T08:03:02.921Z,99.99
2019-02-12T08:04:02.852Z,99.99
2019-02-12T08:05:02.972Z,99.99
2019-02-12T08:06:02.878Z,99.99
2019-02-12T08:07:02.985Z,99.86
2019-02-12T08:08:02.927Z,99.75
2019-02-12T08:09:02.894Z,99.67
2019-02-12T08:10:02.992Z,99.62
2019-02-12T08:11:02.886Z,99.56
2019-02-12T08:12:02.911Z,99.59
2019-02-12T08:13:02.941Z,99.59
2019-02-12T08:14:02.868Z,99.59
2019-02-12T08:15:02.852Z,99.67
2019-02-12T08:16:02.956Z,99.75
2019-02-12T08:17:02.969Z,99.81
2019-02-12T08:18:02.853Z,99.86
2019-02-12T08:19:02.947Z,99.89
2019-02-12T08:20:02.950Z,99.86
2019-02-12T08:21:02.852Z,99.89
2019-02-12T08:22:03.019Z,99.81
2019-02-12T08:23:02.935Z,99.62
2019-02-12T08:24:02.936Z,99.48
2019-02-12T08:25:03.017Z,99.43
2019-02-12T08:26:02.998Z,99.43
2019-02-12T08:27:02.955Z,99.43
2019-02-12T08:28:03.032Z,99.51
2019-02-12T08:29:03.012Z,99.51
2019-02-12T08:30:02.937Z,99.59
2019-02-12T08:31:02.944Z,99.72
2019-02-12T08:32:03.017Z,99.83
2019-02-12T08:33:02.909Z,99.94
2019-02-12T08:34:02.941Z,99.99
2019-02-12T08:35:02.991Z,99.99
2019-02-12T08:36:02.958Z,99.99
2019-02-12T08:37:02.994Z,99.99
2019-02-12T08:38:02.978Z,99.99
2019-02-12T08:39:02.894Z,99.99
2019-02-12T08:40:02.959Z,99.99
2019-02-12T08:41:02.997Z,99.99
2019-02-12T08:42:02.989Z,99.99
2019-02-12T08:43:02.874Z,99.99
2019-02-12T08:44:02.861Z,99.99
2019-02-12T08:45:02.887Z,99.99
2019-02-12T08:46:02.923Z,99.99
2019-02-12T08:47:02.970Z,99.99
2019-02-12T08:48:02.889Z,99.99
2019-02-12T08:49:02.924Z,99.99
2019-02-12T08:50:03.073Z,99.99
2019-02-12T08:51:02.938Z,99.99
2019-02-12T08:52:02.972Z,99.89
2019-02-12T08:53:02.929Z,99.81
2019-02-12T08:54:02.890Z,99.72
2019-02-12T08:55:02.954Z,99.67
2019-02-12T08:56:02.894Z,99.59
2019-02-12T08:57:03.008Z,99.59
2019-02-12T08:58:02.985Z,99.59
2019-02-12T08:59:02.887Z,99.56
2019-02-12T09:00:03.622Z,99.51
2019-02-12T09:01:03.023Z,99.53
2019-02-12T09:02:02.893Z,99.48
2019-02-12T09:03:02.961Z,99.40
2019-02-12T09:04:02.960Z,99.34
2019-02-12T09:05:02.960Z,99.23
2019-02-12T09:06:04.013Z,99.21
2019-02-12T09:07:02.967Z,99.26
2019-02-12T09:08:03.036Z,99.21
2019-02-12T09:09:02.965Z,99.18
2019-02-12T09:10:03.036Z,99.07
2019-02-12T09:11:02.969Z,99.02
2019-02-12T09:12:03.034Z,98.99
2019-02-12T09:13:02.969Z,98.83
2019-02-12T09:14:03.044Z,98.61
2019-02-12T09:15:03.062Z,98.42
2019-02-12T09:16:03.005Z,98.26
2019-02-12T09:17:02.936Z,98.12
2019-02-12T09:18:02.972Z,98.10
2019-02-12T09:19:02.968Z,98.02
2019-02-12T09:20:03.045Z,97.99
2019-02-12T09:21:03.041Z,97.72
2019-02-12T09:22:03.106Z,97.58
2019-02-12T09:23:02.980Z,97.34
2019-02-12T09:24:03.554Z,97.28
2019-02-12T09:25:02.984Z,97.26
2019-02-12T09:26:02.985Z,97.10
2019-02-12T09:27:03.056Z,97.04
2019-02-12T09:28:02.980Z,96.93
2019-02-12T09:29:03.046Z,96.99
2019-02-12T09:30:02.981Z,96.88
2019-02-12T09:31:03.051Z,96.83
2019-02-12T09:32:02.984Z,96.85
2019-02-12T09:33:03.049Z,96.72
2019-02-12T09:34:02.978Z,96.61
2019-02-12T09:35:03.055Z,96.34
2019-02-12T09:36:03.023Z,96.17
2019-02-12T09:37:03.073Z,96.26
2019-02-12T09:38:03.053Z,96.31
2019-02-12T09:39:02.990Z,96.31
2019-02-12T09:40:03.135Z,96.34
2019-02-12T09:41:03.063Z,96.31
2019-02-12T09:42:03.065Z,96.34
2019-02-12T09:43:02.995Z,96.28
2019-02-12T09:44:03.058Z,96.28
2019-02-12T09:45:02.998Z,96.34
2019-02-12T09:46:02.949Z,96.34
2019-02-12T09:47:03.019Z,96.15
2019-02-12T09:48:02.992Z,95.94
2019-02-12T09:49:02.997Z,95.88
2019-02-12T09:50:03.074Z,95.94
2019-02-12T09:51:02.994Z,95.98
2019-02-12T09:52:03.064Z,95.80
2019-02-12T09:53:02.998Z,95.77
2019-02-12T09:54:08.660Z,95.75
2019-02-12T09:55:03.018Z,95.58
2019-02-12T09:56:03.065Z,95.56
2019-02-12T09:57:03.000Z,95.47
2019-02-12T09:58:03.023Z,95.28
2019-02-12T09:59:03.066Z,95.34
2019-02-12T10:00:03.000Z,95.12
2019-02-12T10:01:03.031Z,95.04
2019-02-12T10:02:03.070Z,95.04
2019-02-12T10:03:02.999Z,94.99
2019-02-12T10:04:03.083Z,94.88
2019-02-12T10:05:03.002Z,94.88
2019-02-12T10:06:03.075Z,94.86
2019-02-12T10:07:03.027Z,94.91
2019-02-12T10:08:03.077Z,94.83
2019-02-12T10:09:03.017Z,94.42
2019-02-12T10:10:03.083Z,94.34
2019-02-12T10:11:03.006Z,94.37
2019-02-12T10:12:03.076Z,94.48
2019-02-12T10:13:03.035Z,94.53
2019-02-12T10:14:03.063Z,94.26
2019-02-12T10:15:03.063Z,93.99
2019-02-12T10:16:03.010Z,93.99
2019-02-12T10:17:03.056Z,94.10
2019-02-12T10:18:03.015Z,93.99
2019-02-12T10:19:03.030Z,94.07
2019-02-12T10:20:02.939Z,94.48
2019-02-12T10:21:03.060Z,94.93
2019-02-12T10:22:02.977Z,94.99
2019-02-12T10:23:03.006Z,95.20
2019-02-12T10:24:03.034Z,95.56
2019-02-12T10:25:02.942Z,95.61
2019-02-12T10:26:03.061Z,95.47
2019-02-12T10:27:03.036Z,95.47
2019-02-12T10:28:03.054Z,95.56
2019-02-12T10:29:02.982Z,95.50
2019-02-12T10:30:03.037Z,95.45
2019-02-12T10:31:02.947Z,95.47
2019-02-12T10:32:08.719Z,95.58
2019-02-12T10:33:03.092Z,95.75
2019-02-12T10:34:03.094Z,95.88
2019-02-12T10:35:03.026Z,95.75
2019-02-12T10:36:03.032Z,95.53
2019-02-12T10:37:03.092Z,95.39
2019-02-12T10:38:03.050Z,95.12
2019-02-12T10:39:03.098Z,95.01
2019-02-12T10:40:03.024Z,95.07
2019-02-12T10:41:03.105Z,95.07
2019-02-12T10:42:03.027Z,94.83
2019-02-12T10:43:03.102Z,94.61
2019-02-12T10:44:03.033Z,94.42
2019-02-12T10:45:02.997Z,94.02
2019-02-12T10:46:03.111Z,93.70
2019-02-12T10:47:03.102Z,93.26
2019-02-12T10:48:03.034Z,92.65
2019-02-12T10:49:02.994Z,92.30
2019-02-12T10:50:03.032Z,92.24
2019-02-12T10:51:03.118Z,92.14
2019-02-12T10:52:03.038Z,91.92
2019-02-12T10:53:03.045Z,91.71
2019-02-12T10:54:03.112Z,91.68
2019-02-12T10:55:03.040Z,91.82
2019-02-12T10:56:04.632Z,91.84
2019-02-12T10:57:03.110Z,92.24
2019-02-12T10:58:03.042Z,92.43
2019-02-12T10:59:03.124Z,92.73
2019-02-12T11:00:03.110Z,93.48
2019-02-12T11:01:03.132Z,94.10
2019-02-12T11:02:03.124Z,94.72
2019-02-12T11:03:03.050Z,95.18
2019-02-12T11:04:03.062Z,95.42
2019-02-12T11:05:03.016Z,95.72
2019-02-12T11:06:03.134Z,95.98
2019-02-12T11:07:03.008Z,96.23
2019-02-12T11:08:03.108Z,96.42
2019-02-12T11:09:02.994Z,96.50
2019-02-12T11:10:03.121Z,96.74
2019-02-12T11:11:03.035Z,96.96
2019-02-12T11:12:03.039Z,96.96
2019-02-12T11:13:03.006Z,96.93
2019-02-12T11:14:03.106Z,96.85
2019-02-12T11:15:03.080Z,96.61
2019-02-12T11:16:03.115Z,96.55
2019-02-12T11:17:03.119Z,96.66
2019-02-12T11:18:03.066Z,96.66
2019-02-12T11:19:03.028Z,96.77
2019-02-12T11:20:03.117Z,96.85
2019-02-12T11:21:03.051Z,96.74
2019-02-12T11:22:03.058Z,96.85
2019-02-12T11:23:03.127Z,96.93
2019-02-12T11:24:03.134Z,97.04
2019-02-12T11:25:03.061Z,97.10
2019-02-12T11:26:03.060Z,97.10
2019-02-12T11:27:03.138Z,96.93
2019-02-12T11:28:03.138Z,96.83
2019-02-12T11:29:03.061Z,96.77
2019-02-12T11:30:03.061Z,96.55
2019-02-12T11:31:03.064Z,95.91
2019-02-12T11:32:03.064Z,95.72
2019-02-12T11:33:03.117Z,95.45
2019-02-12T11:34:03.115Z,95.01
2019-02-12T11:35:03.059Z,94.69
2019-02-12T11:36:03.060Z,94.67
2019-02-12T11:37:03.073Z,94.59
2019-02-12T11:38:03.092Z,94.53
2019-02-12T11:39:03.032Z,94.72
2019-02-12T11:40:03.001Z,94.96
2019-02-12T11:41:03.040Z,94.99
2019-02-12T11:42:03.131Z,94.86
2019-02-12T11:43:03.043Z,94.64
2019-02-12T11:44:03.128Z,94.75
2019-02-12T11:45:03.136Z,94.48
2019-02-12T11:46:03.939Z,94.34
2019-02-12T11:47:03.048Z,93.70
2019-02-12T11:48:03.086Z,93.16
2019-02-12T11:49:03.030Z,93.18
2019-02-12T11:50:03.142Z,93.35
2019-02-12T11:51:03.083Z,93.10
2019-02-12T11:52:03.036Z,92.95
2019-02-12T11:53:03.099Z,93.16
2019-02-12T11:54:03.108Z,92.62
2019-02-12T11:55:03.052Z,92.08
2019-02-12T11:56:03.111Z,91.68
2019-02-12T11:57:03.040Z,91.52
2019-02-12T11:58:03.146Z,91.09
2019-02-12T11:59:03.084Z,90.69
2019-02-12T12:00:03.133Z,90.55
2019-02-12T12:01:03.117Z,90.58
2019-02-12T12:02:03.044Z,90.66
2019-02-12T12:03:03.045Z,90.82
2019-02-12T12:04:03.018Z,90.15
2019-02-12T12:05:03.080Z,89.45
2019-02-12T12:06:03.142Z,89.35
2019-02-12T12:07:03.098Z,88.81
2019-02-12T12:08:03.047Z,88.52
2019-02-12T12:09:03.139Z,88.17
2019-02-12T12:10:03.114Z,87.13
2019-02-12T12:11:03.052Z,86.57
2019-02-12T12:12:03.147Z,86.33
2019-02-12T12:13:03.265Z,85.64
2019-02-12T12:14:03.221Z,85.40
2019-02-12T12:15:03.157Z,85.69
2019-02-12T12:16:03.160Z,84.87
2019-02-12T12:17:03.160Z,84.87
2019-02-12T12:18:03.113Z,85.00
2019-02-12T12:19:03.155Z,85.21
2019-02-12T12:20:03.088Z,84.09
2019-02-12T12:21:03.087Z,83.83
2019-02-12T12:22:03.160Z,83.65
2019-02-12T12:23:03.102Z,83.99
2019-02-12T12:24:03.099Z,84.20
2019-02-12T12:25:03.173Z,84.20
2019-02-12T12:26:03.105Z,84.07
2019-02-12T12:27:03.172Z,84.15
2019-02-12T12:28:03.112Z,83.67
2019-02-12T12:29:03.106Z,83.62
2019-02-12T12:30:03.176Z,83.81
2019-02-12T12:31:03.105Z,82.90
2019-02-12T12:32:03.194Z,80.92
2019-02-12T12:33:03.113Z,80.41
2019-02-12T12:34:03.137Z,79.97
2019-02-12T12:35:03.072Z,80.21
2019-02-12T12:36:03.194Z,80.49
2019-02-12T12:37:03.114Z,79.57
2019-02-12T12:38:03.176Z,78.75
2019-02-12T12:39:03.179Z,78.25
2019-02-12T12:40:03.138Z,79.25
2019-02-12T12:41:03.110Z,79.94
2019-02-12T12:42:03.079Z,78.99
2019-02-12T12:43:03.190Z,78.59
2019-02-12T12:44:03.180Z,78.89
2019-02-12T12:45:03.126Z,78.59
2019-02-12T12:46:03.184Z,78.07
2019-02-12T12:47:03.122Z,77.97
2019-02-12T12:48:03.185Z,78.52
2019-02-12T12:49:03.197Z,79.02
2019-02-12T12:50:03.128Z,78.73
2019-02-12T12:51:03.189Z,78.31
2019-02-12T12:52:03.126Z,77.44
2019-02-12T12:53:03.176Z,78.01